Time;durP1;ratioP1;P1;durP2;ratioP2;P2;SDS_P1;SDS_P2;PMS_P1;PMS_P2;Temp;Humidity;BMP_temperature;BMP_pressure;BME280_temperature;BME280_humidity;BME280_pressure;Samples;Min_cycle;Max_cycle;Signal;HPM_P1;HPM_P2
2022/01/23 00:02:15;;;;;;;;;45.00;38.00;;;;;-143.72;100.00;60182.97;5012341;28;45564;-80
2022/01/23 00:04:40;;;;;;;;;57.25;42.50;;;;;-143.72;100.00;60182.97;5010946;28;45383;-80
2022/01/23 00:07:09;;;;;;;;;55.25;39.25;;;;;-143.72;100.00;60182.97;4995648;28;45390;-79
2022/01/23 00:09:35;;;;;;;;;59.50;41.25;;;;;-143.72;100.00;60182.97;5009387;28;45455;-79
2022/01/23 00:12:06;;;;;;;;;56.25;43.50;;;;;-143.72;100.00;60182.97;5012531;28;46096;-78
2022/01/23 00:17:20;;;;;;;;;54.00;42.75;;;;;-143.72;100.00;60182.97;5007599;28;45592;-77
2022/01/23 00:19:48;;;;;;;;;49.50;38.75;;;;;-143.72;100.00;60182.97;5010033;28;45502;-77
2022/01/23 00:22:14;;;;;;;;;49.75;36.50;;;;;-143.72;100.00;60182.97;5012027;28;45648;-78
2022/01/23 00:30:28;;;;;;;;;52.50;41.75;;;;;-143.72;100.00;60182.97;5015290;28;45555;-78
2022/01/23 00:32:57;;;;;;;;;33.50;19.25;;;;;-143.72;100.00;60182.97;5008594;28;46619;-78
2022/01/23 00:35:23;;;;;;;;;58.00;40.50;;;;;-143.72;100.00;60182.97;4993001;28;45390;-78
2022/01/23 00:38:22;;;;;;;;;54.50;39.50;;;;;-143.72;100.00;60182.97;5029443;28;45680;-77
2022/01/23 00:40:48;;;;;;;;;54.75;39.00;;;;;-143.72;100.00;60182.97;5048415;28;45452;-78
2022/01/23 00:43:17;;;;;;;;;54.50;38.25;;;;;-143.72;100.00;60182.97;5050350;28;45625;-78
2022/01/23 00:45:54;;;;;;;;;45.00;38.75;;;;;-143.72;100.00;60182.97;5026370;28;45560;-79
2022/01/23 00:48:25;;;;;;;;;63.50;46.75;;;;;-143.72;100.00;60182.97;5051229;28;45466;-78
2022/01/23 00:50:51;;;;;;;;;43.00;37.00;;;;;-143.72;100.00;60182.97;5051945;28;45403;-78
2022/01/23 00:53:16;;;;;;;;;55.25;43.25;;;;;-143.72;100.00;60182.97;5044463;28;45398;-79
2022/01/23 00:55:44;;;;;;;;;61.50;47.25;;;;;-143.72;100.00;60182.97;5051666;28;45520;-79
2022/01/23 00:58:10;;;;;;;;;72.75;51.25;;;;;-143.72;100.00;60182.97;5043081;28;45537;-78
2022/01/23 01:00:37;;;;;;;;;61.50;45.00;;;;;-143.72;100.00;60182.97;5043176;28;45702;-79
2022/01/23 01:03:03;;;;;;;;;56.25;42.00;;;;;-143.72;100.00;60182.97;5050833;28;46122;-78
2022/01/23 01:05:29;;;;;;;;;57.75;40.75;;;;;-143.72;100.00;60182.97;5055076;28;45387;-78
2022/01/23 01:07:56;;;;;;;;;50.75;40.75;;;;;-143.72;100.00;60182.97;5051895;28;45320;-79
2022/01/23 01:10:27;;;;;;;;;54.75;41.00;;;;;-143.72;100.00;60182.97;5032855;28;45645;-78
2022/01/23 01:12:58;;;;;;;;;44.25;39.00;;;;;-143.72;100.00;60182.97;5053805;28;45595;-79
2022/01/23 01:15:32;;;;;;;;;46.25;36.25;;;;;-143.72;100.00;60182.97;5054166;28;45431;-78
2022/01/23 01:33:56;;;;;;;;;46.75;38.50;;;;;-143.72;100.00;60182.97;5055021;28;45393;-78
2022/01/23 01:38:47;;;;;;;;;44.25;36.75;;;;;-143.72;100.00;60182.97;5055213;28;45345;-78
2022/01/23 01:41:14;;;;;;;;;58.75;46.00;;;;;-143.72;100.00;60182.97;5044489;28;45545;-78
2022/01/23 01:43:40;;;;;;;;;54.00;38.50;;;;;-143.72;100.00;60182.97;5033653;28;45992;-78
2022/01/23 01:46:05;;;;;;;;;55.75;44.50;;;;;-143.72;100.00;60182.97;5034619;28;45368;-78
2022/01/23 01:48:30;;;;;;;;;51.25;38.00;;;;;-143.72;100.00;60182.97;5034442;28;45444;-78
2022/01/23 01:50:58;;;;;;;;;53.50;41.25;;;;;-143.72;100.00;60182.97;5034362;28;45714;-78
2022/01/23 01:53:24;;;;;;;;;53.75;43.00;;;;;-143.72;100.00;60182.97;5031747;28;46278;-78
2022/01/23 01:55:54;;;;;;;;;52.00;38.25;;;;;-143.72;100.00;60182.97;5034242;28;45496;-78
2022/01/23 02:02:38;;;;;;;;;53.00;41.50;;;;;-143.72;100.00;60182.97;5033819;28;45528;-78
2022/01/23 02:09:25;;;;;;;;;46.25;38.25;;;;;-143.72;100.00;60182.97;5022025;28;45314;-79
2022/01/23 02:17:39;;;;;;;;;41.25;36.25;;;;;-143.72;100.00;60182.97;5034997;28;45395;-79
2022/01/23 02:55:39;;;;;;;;;63.00;45.00;;;;;-143.72;100.00;60182.97;5044817;28;45325;-78
2022/01/23 02:58:08;;;;;;;;;58.00;41.50;;;;;-143.72;100.00;60182.97;5047551;28;46059;-78
2022/01/23 03:00:46;;;;;;;;;51.25;41.50;;;;;-143.72;100.00;60182.97;5054019;28;45388;-79
2022/01/23 03:03:14;;;;;;;;;52.00;41.75;;;;;-143.72;100.00;60182.97;5053789;28;45500;-79
2022/01/23 03:05:40;;;;;;;;;47.75;37.75;;;;;-143.72;100.00;60182.97;5053966;28;45335;-79
2022/01/23 03:24:10;;;;;;;;;77.67;54.33;;;;;-143.72;100.00;60182.97;5042547;28;45443;-79
2022/01/23 03:24:37;;;;;;;;;80.33;52.67;;;;;-143.72;100.00;60182.97;5053598;28;45423;-78
2022/01/23 03:31:44;;;;;;;;;63.75;46.75;;;;;-143.72;100.00;60182.97;5053370;28;45651;-79
2022/01/23 03:34:11;;;;;;;;;60.75;45.25;;;;;-143.72;100.00;60182.97;5035508;28;45393;-78
2022/01/23 03:36:37;;;;;;;;;42.50;32.75;;;;;-143.72;100.00;60182.97;5053615;28;45495;-78
2022/01/23 03:39:07;;;;;;;;;43.75;34.00;;;;;-143.72;100.00;60182.97;5051938;28;48123;-79
2022/01/23 03:41:38;;;;;;;;;35.00;29.75;;;;;-143.72;100.00;60182.97;5036730;28;45308;-78
2022/01/23 03:44:06;;;;;;;;;45.75;35.50;;;;;-143.72;100.00;60182.97;5053774;28;45491;-78
2022/01/23 03:52:19;;;;;;;;;36.25;32.50;;;;;-143.72;100.00;60182.97;5008036;28;45480;-79
2022/01/23 03:54:46;;;;;;;;;31.50;27.25;;;;;-143.72;100.00;60182.97;5013595;28;45651;-78
2022/01/23 03:57:11;;;;;;;;;36.25;30.50;;;;;-143.72;100.00;60182.97;5014512;28;45535;-79
2022/01/23 03:59:37;;;;;;;;;35.25;34.00;;;;;-143.72;100.00;60182.97;4996166;28;46365;-77
2022/01/23 04:02:03;;;;;;;;;41.00;34.00;;;;;-143.72;100.00;60182.97;5014517;28;45552;-79
2022/01/23 04:06:54;;;;;;;;;45.25;29.75;;;;;-143.72;100.00;60182.97;5014229;28;45465;-79
2022/01/23 04:09:19;;;;;;;;;35.00;29.75;;;;;-143.72;100.00;60182.97;5013938;28;46374;-79
2022/01/23 04:11:45;;;;;;;;;35.50;34.75;;;;;-143.72;100.00;60182.97;5013949;28;46849;-79
2022/01/23 04:14:13;;;;;;;;;43.00;35.75;;;;;-143.72;100.00;60182.97;5014750;28;45810;-79
2022/01/23 04:45:08;;;;;;;;;35.00;31.25;;;;;-143.72;100.00;60182.97;5046886;28;45388;-79
2022/01/23 05:00:08;;;;;;;;;24.75;22.00;;;;;-143.72;100.00;60182.97;4974340;28;45650;-78
2022/01/23 05:05:08;;;;;;;;;26.00;22.75;;;;;-143.72;100.00;60182.97;4973641;28;45394;-79
2022/01/23 05:07:34;;;;;;;;;30.50;22.00;;;;;-143.72;100.00;60182.97;4973740;28;45538;-79
2022/01/23 05:09:59;;;;;;;;;24.25;21.25;;;;;-143.72;100.00;60182.97;4974086;28;45507;-78
2022/01/23 05:12:29;;;;;;;;;24.25;21.75;;;;;-143.72;100.00;60182.97;4984832;28;45404;-79
2022/01/23 05:14:54;;;;;;;;;23.75;21.25;;;;;-143.72;100.00;60182.97;4958290;28;45364;-79
2022/01/23 05:17:20;;;;;;;;;20.75;19.75;;;;;-143.72;100.00;60182.97;4989119;28;45390;-79
2022/01/23 05:19:46;;;;;;;;;33.50;26.75;;;;;-143.72;100.00;60182.97;4974344;28;45348;-78
2022/01/23 05:24:46;;;;;;;;;26.00;22.50;;;;;-143.72;100.00;60182.97;4974093;28;45718;-78
2022/01/23 05:27:11;;;;;;;;;25.25;23.50;;;;;-143.72;100.00;60182.97;4977505;28;45620;-78
2022/01/23 05:29:37;;;;;;;;;26.50;24.75;;;;;-143.72;100.00;60182.97;5026966;28;45512;-79
2022/01/23 05:32:04;;;;;;;;;34.25;25.75;;;;;-143.72;100.00;60182.97;5034543;28;45464;-79
2022/01/23 05:34:30;;;;;;;;;32.00;23.25;;;;;-143.72;100.00;60182.97;5026126;28;45407;-79
2022/01/23 05:36:55;;;;;;;;;28.00;26.00;;;;;-143.72;100.00;60182.97;5027143;28;45390;-79
2022/01/23 05:39:23;;;;;;;;;29.25;22.50;;;;;-143.72;100.00;60182.97;5035387;28;47562;-79
2022/01/23 05:41:54;;;;;;;;;35.00;26.25;;;;;-143.72;100.00;60182.97;5025994;28;46991;-78
2022/01/23 05:44:20;;;;;;;;;33.00;27.50;;;;;-143.72;100.00;60182.97;5034319;28;45491;-78
2022/01/23 05:46:46;;;;;;;;;26.00;20.50;;;;;-143.72;100.00;60182.97;5033450;28;45447;-78
2022/01/23 05:49:11;;;;;;;;;21.50;18.75;;;;;-143.72;100.00;60182.97;5028925;28;45360;-79
2022/01/23 05:51:37;;;;;;;;;33.00;28.75;;;;;-143.72;100.00;60182.97;5022663;28;45895;-79
2022/01/23 05:54:02;;;;;;;;;34.00;31.25;;;;;-143.72;100.00;60182.97;5018857;28;45331;-78
2022/01/23 05:56:28;;;;;;;;;30.50;27.75;;;;;-143.72;100.00;60182.97;5019513;28;45447;-78
2022/01/23 05:58:54;;;;;;;;;27.00;26.25;;;;;-143.72;100.00;60182.97;5023420;28;45797;-79
2022/01/23 06:01:19;;;;;;;;;36.75;29.25;;;;;-143.72;100.00;60182.97;5028681;28;47146;-78
2022/01/23 06:03:44;;;;;;;;;31.25;27.75;;;;;-143.72;100.00;60182.97;5032865;28;45553;-78
2022/01/23 06:06:10;;;;;;;;;32.25;28.25;;;;;-143.72;100.00;60182.97;5034357;28;45417;-79
2022/01/23 06:08:35;;;;;;;;;25.50;19.50;;;;;-143.72;100.00;60182.97;5034423;28;45436;-79
2022/01/23 06:11:01;;;;;;;;;31.75;24.00;;;;;-143.72;100.00;60182.97;5034796;28;46531;-79
2022/01/23 06:13:27;;;;;;;;;21.75;20.00;;;;;-143.72;100.00;60182.97;5033949;28;45416;-79
2022/01/23 06:15:54;;;;;;;;;35.75;24.50;;;;;-143.72;100.00;60182.97;5031303;28;45513;-79
2022/01/23 06:18:19;;;;;;;;;25.25;21.50;;;;;-143.72;100.00;60182.97;5028439;28;45764;-78
2022/01/23 06:20:45;;;;;;;;;26.50;23.25;;;;;-143.72;100.00;60182.97;5033881;28;46018;-79
2022/01/23 06:23:11;;;;;;;;;34.75;26.50;;;;;-143.72;100.00;60182.97;5048182;28;45580;-79
2022/01/23 06:25:37;;;;;;;;;27.50;23.75;;;;;-143.72;100.00;60182.97;5030533;28;45304;-78
2022/01/23 06:28:05;;;;;;;;;27.50;23.50;;;;;-143.72;100.00;60182.97;5031999;28;45411;-78
2022/01/23 06:30:31;;;;;;;;;30.75;26.25;;;;;-143.72;100.00;60182.97;5034133;28;46170;-78
2022/01/23 06:32:56;;;;;;;;;31.50;27.50;;;;;-143.72;100.00;60182.97;5033772;28;45590;-79
2022/01/23 06:35:22;;;;;;;;;29.25;23.50;;;;;-143.72;100.00;60182.97;5025425;28;45500;-78
2022/01/23 06:37:48;;;;;;;;;23.75;21.00;;;;;-143.72;100.00;60182.97;5033217;28;45325;-79
2022/01/23 06:40:13;;;;;;;;;34.50;26.25;;;;;-143.72;100.00;60182.97;5032100;28;45591;-79
2022/01/23 06:42:39;;;;;;;;;46.00;24.00;;;;;-143.72;100.00;60182.97;5053944;28;47040;-78
2022/01/23 06:45:05;;;;;;;;;30.50;23.50;;;;;-143.72;100.00;60182.97;5052683;28;45853;-78
2022/01/23 06:47:30;;;;;;;;;0.00;0.00;;;;;-143.72;100.00;60182.97;5054159;28;45524;-79
2022/01/23 06:49:56;;;;;;;;;23.75;21.75;;;;;-143.72;100.00;60182.97;5047624;28;45768;-79
2022/01/23 06:52:22;;;;;;;;;37.00;29.50;;;;;-143.72;100.00;60182.97;5046211;28;45432;-79
2022/01/23 06:54:47;;;;;;;;;42.25;32.50;;;;;-143.72;100.00;60182.97;5027626;28;45426;-79
2022/01/23 06:57:12;;;;;;;;;32.75;28.00;;;;;-143.72;100.00;60182.97;5051827;28;45473;-80
2022/01/23 06:59:38;;;;;;;;;26.75;23.75;;;;;-143.72;100.00;60182.97;5048601;28;45411;-79
2022/01/23 07:02:04;;;;;;;;;42.75;27.75;;;;;-143.72;100.00;60182.97;5052672;28;45511;-79
2022/01/23 07:04:29;;;;;;;;;35.25;27.75;;;;;-143.72;100.00;60182.97;5053560;28;45514;-80
2022/01/23 07:06:56;;;;;;;;;41.50;29.25;;;;;-143.72;100.00;60182.97;5053401;28;45513;-79
2022/01/23 07:09:21;;;;;;;;;31.75;24.00;;;;;-143.72;100.00;60182.97;5053875;28;46079;-79
2022/01/23 07:11:46;;;;;;;;;31.25;22.75;;;;;-143.72;100.00;60182.97;5019186;28;45456;-79
2022/01/23 07:14:12;;;;;;;;;22.25;19.75;;;;;-143.72;100.00;60182.97;5054488;28;45591;-79
2022/01/23 07:16:38;;;;;;;;;35.00;27.25;;;;;-143.72;100.00;60182.97;5035248;28;45723;-79
2022/01/23 07:19:03;;;;;;;;;30.75;27.00;;;;;-143.72;100.00;60182.97;5053342;28;46083;-79
2022/01/23 07:21:29;;;;;;;;;24.25;21.50;;;;;-143.72;100.00;60182.97;5052443;28;45447;-79
2022/01/23 07:23:54;;;;;;;;;29.25;24.25;;;;;-143.72;100.00;60182.97;5052382;28;45533;-79
2022/01/23 07:26:22;;;;;;;;;37.75;29.25;;;;;-143.72;100.00;60182.97;5039034;28;45466;-79
2022/01/23 07:28:49;;;;;;;;;28.25;26.75;;;;;-143.72;100.00;60182.97;5035884;28;48374;-79
2022/01/23 07:31:32;;;;;;;;;33.50;24.25;;;;;-143.72;100.00;60182.97;5057340;28;45510;-79
2022/01/23 07:34:09;;;;;;;;;33.75;27.50;;;;;-143.72;100.00;60182.97;5053685;28;45418;-79
2022/01/23 07:36:36;;;;;;;;;35.25;26.75;;;;;-143.72;100.00;60182.97;5045877;28;45380;-79
2022/01/23 07:39:02;;;;;;;;;31.25;28.00;;;;;-143.72;100.00;60182.97;5023899;28;47033;-79
2022/01/23 07:41:28;;;;;;;;;27.25;24.00;;;;;-143.72;100.00;60182.97;5057058;28;45510;-79
2022/01/23 07:43:54;;;;;;;;;34.75;27.00;;;;;-143.72;100.00;60182.97;5057039;28;45475;-79
2022/01/23 07:46:21;;;;;;;;;34.75;31.75;;;;;-143.72;100.00;60182.97;5031627;28;45588;-79
2022/01/23 07:48:46;;;;;;;;;35.50;30.50;;;;;-143.72;100.00;60182.97;5044806;28;48158;-79
2022/01/23 07:51:12;;;;;;;;;31.00;25.50;;;;;-143.72;100.00;60182.97;5025452;28;45673;-79
2022/01/23 07:53:37;;;;;;;;;37.75;31.00;;;;;-143.72;100.00;60182.97;5041057;28;45384;-79
2022/01/23 07:56:03;;;;;;;;;35.50;28.75;;;;;-143.72;100.00;60182.97;5044791;28;45426;-79
2022/01/23 07:58:29;;;;;;;;;37.00;31.00;;;;;-143.72;100.00;60182.97;5045195;28;45996;-79
2022/01/23 08:00:54;;;;;;;;;41.00;33.75;;;;;-143.72;100.00;60182.97;5026847;28;45835;-78
2022/01/23 08:03:20;;;;;;;;;32.25;27.25;;;;;-143.72;100.00;60182.97;5026518;28;45313;-79
2022/01/23 08:05:46;;;;;;;;;36.25;32.00;;;;;-143.72;100.00;60182.97;5039858;28;45456;-78
2022/01/23 08:08:11;;;;;;;;;35.25;26.25;;;;;-143.72;100.00;60182.97;5057404;28;45571;-79
2022/01/23 08:10:37;;;;;;;;;35.75;28.75;;;;;-143.72;100.00;60182.97;5038315;28;45539;-78
2022/01/23 08:13:03;;;;;;;;;38.75;33.25;;;;;-143.72;100.00;60182.97;5052133;28;45445;-80
2022/01/23 08:15:30;;;;;;;;;38.00;30.25;;;;;-143.72;100.00;60182.97;5024627;28;45590;-79
2022/01/23 08:18:03;;;;;;;;;24.75;22.75;;;;;-143.72;100.00;60182.97;5036736;28;48309;-78
2022/01/23 08:20:29;;;;;;;;;31.75;24.00;;;;;-143.72;100.00;60182.97;5052596;28;45551;-78
2022/01/23 08:22:55;;;;;;;;;33.25;28.50;;;;;-143.72;100.00;60182.97;5033608;28;45545;-78
2022/01/23 08:25:20;;;;;;;;;40.00;32.25;;;;;-143.72;100.00;60182.97;5052078;28;45450;-79
2022/01/23 08:27:46;;;;;;;;;27.25;24.50;;;;;-143.72;100.00;60182.97;5055337;28;45974;-77
2022/01/23 08:30:15;;;;;;;;;32.25;28.50;;;;;-143.72;100.00;60182.97;5054778;28;50358;-78
2022/01/23 08:32:40;;;;;;;;;42.50;30.25;;;;;-143.72;100.00;60182.97;5035677;28;45318;-78
2022/01/23 08:35:06;;;;;;;;;43.75;34.00;;;;;-143.72;100.00;60182.97;5035187;28;45491;-78
2022/01/23 08:37:31;;;;;;;;;36.00;26.75;;;;;-143.72;100.00;60182.97;5052729;28;48396;-78
2022/01/23 08:39:57;;;;;;;;;31.50;30.00;;;;;-143.72;100.00;60182.97;5053037;28;45486;-79
2022/01/23 08:42:22;;;;;;;;;34.25;25.75;;;;;-143.72;100.00;60182.97;5054803;28;45632;-78
2022/01/23 08:44:49;;;;;;;;;33.75;29.00;;;;;-143.72;100.00;60182.97;5053836;28;45991;-80
2022/01/23 08:47:15;;;;;;;;;38.00;32.25;;;;;-143.72;100.00;60182.97;5057199;28;45439;-80
2022/01/23 08:49:48;;;;;;;;;35.75;27.00;;;;;-143.72;100.00;60182.97;5053551;28;46043;-80
2022/01/23 08:52:16;;;;;;;;;34.00;28.00;;;;;-143.72;100.00;60182.97;5050953;28;45557;-80
2022/01/23 08:54:42;;;;;;;;;37.75;35.00;;;;;-143.72;100.00;60182.97;5054881;28;45342;-80
2022/01/23 08:57:08;;;;;;;;;37.00;31.75;;;;;-143.72;100.00;60182.97;5055410;28;46410;-80
2022/01/23 08:59:33;;;;;;;;;43.75;34.25;;;;;-143.72;100.00;60182.97;5054812;28;45408;-79
2022/01/23 09:01:58;;;;;;;;;38.00;31.25;;;;;-143.72;100.00;60182.97;5055231;28;45427;-80
2022/01/23 09:04:24;;;;;;;;;39.00;35.25;;;;;-143.72;100.00;60182.97;5053790;28;45498;-81
2022/01/23 09:06:49;;;;;;;;;42.00;32.25;;;;;-143.72;100.00;60182.97;5046444;28;48515;-78
2022/01/23 09:09:18;;;;;;;;;42.50;34.75;;;;;-143.72;100.00;60182.97;5054582;28;45546;-75
2022/01/23 09:14:20;;;;;;;;;60.67;48.00;;;;;-143.72;100.00;60182.97;5055857;28;45416;-78
2022/01/23 09:16:48;;;;;;;;;35.25;30.25;;;;;-143.72;100.00;60182.97;5036527;28;46794;-78
2022/01/23 09:19:14;;;;;;;;;43.25;35.50;;;;;-143.72;100.00;60182.97;5054443;28;45301;-78
2022/01/23 09:21:39;;;;;;;;;48.00;35.25;;;;;-143.72;100.00;60182.97;5054243;28;49425;-78
2022/01/23 09:24:05;;;;;;;;;43.75;34.00;;;;;-143.72;100.00;60182.97;5054721;28;45464;-78
2022/01/23 09:26:33;;;;;;;;;33.75;26.50;;;;;-143.72;100.00;60182.97;5041270;28;46423;-79
2022/01/23 09:29:01;;;;;;;;;40.50;35.25;;;;;-143.72;100.00;60182.97;5054161;28;45450;-78
2022/01/23 09:31:35;;;;;;;;;35.50;32.00;;;;;-143.72;100.00;60182.97;5033232;28;45460;-77
2022/01/23 09:34:02;;;;;;;;;43.25;35.25;;;;;-143.72;100.00;60182.97;5035245;28;45660;-79
2022/01/23 09:36:28;;;;;;;;;46.25;37.50;;;;;-143.72;100.00;60182.97;5047827;28;45458;-78
2022/01/23 09:38:54;;;;;;;;;47.00;36.00;;;;;-143.72;100.00;60182.97;5044883;28;45349;-78
2022/01/23 09:41:24;;;;;;;;;48.25;36.00;;;;;-143.72;100.00;60182.97;5045973;28;45364;-78
2022/01/23 09:43:49;;;;;;;;;43.50;35.00;;;;;-143.72;100.00;60182.97;5044148;28;51240;-78
2022/01/23 09:46:15;;;;;;;;;41.75;35.25;;;;;-143.72;100.00;60182.97;5044207;28;45415;-79
2022/01/23 09:48:46;;;;;;;;;26.75;23.50;;;;;-143.72;100.00;60182.97;5049016;28;45479;-80
2022/01/23 09:51:13;;;;;;;;;43.00;35.50;;;;;-143.72;100.00;60182.97;5032693;28;45460;-84
2022/01/23 09:53:40;;;;;;;;;42.75;37.25;;;;;-143.72;100.00;60182.97;5049719;28;45548;-81
2022/01/23 09:56:08;;;;;;;;;44.00;34.75;;;;;-143.72;100.00;60182.97;5053428;28;46205;-82
2022/01/23 09:58:37;;;;;;;;;43.75;35.00;;;;;-143.72;100.00;60182.97;5048260;28;45565;-82
2022/01/23 10:01:03;;;;;;;;;48.75;39.75;;;;;-143.72;100.00;60182.97;5052768;28;45565;-82
2022/01/23 10:03:28;;;;;;;;;57.00;40.75;;;;;-143.72;100.00;60182.97;5048212;28;45530;-83
2022/01/23 10:05:56;;;;;;;;;51.00;33.50;;;;;-143.72;100.00;60182.97;5059677;28;46173;-83
2022/01/23 10:08:23;;;;;;;;;49.50;35.50;;;;;-143.72;100.00;60182.97;5049873;28;45479;-82
2022/01/23 10:10:53;;;;;;;;;50.50;40.00;;;;;-143.72;100.00;60182.97;5031308;28;45405;-81
2022/01/23 10:13:23;;;;;;;;;58.00;39.25;;;;;-143.72;100.00;60182.97;5045626;28;45561;-82
2022/01/23 10:15:49;;;;;;;;;49.50;39.50;;;;;-143.72;100.00;60182.97;5033725;28;46885;-81
2022/01/23 10:18:17;;;;;;;;;46.25;40.75;;;;;-143.72;100.00;60182.97;5051034;28;45553;-82
2022/01/23 10:20:43;;;;;;;;;54.50;40.50;;;;;-143.72;100.00;60182.97;5032079;28;45661;-81
2022/01/23 10:23:10;;;;;;;;;53.50;37.25;;;;;-143.72;100.00;60182.97;5033093;28;45757;-81
2022/01/23 10:25:42;;;;;;;;;54.00;41.00;;;;;-143.72;100.00;60182.97;5033298;28;47058;-82
2022/01/23 10:28:12;;;;;;;;;40.50;33.75;;;;;-143.72;100.00;60182.97;5052313;28;45536;-82
2022/01/23 10:30:42;;;;;;;;;49.50;38.25;;;;;-143.72;100.00;60182.97;5052043;28;45529;-83
2022/01/23 10:33:10;;;;;;;;;59.50;41.25;;;;;-143.72;100.00;60182.97;5029858;28;45579;-82
2022/01/23 10:36:00;;;;;;;;;51.50;39.50;;;;;-143.72;100.00;60182.97;5050385;28;46114;-85
2022/01/23 10:39:01;;;;;;;;;48.75;40.50;;;;;-143.72;100.00;60182.97;5047736;28;45348;-84
2022/01/23 10:47:32;;;;;;;;;45.25;36.25;;;;;-143.72;100.00;60182.97;5046489;28;45577;-78
2022/01/23 10:49:59;;;;;;;;;52.00;40.50;;;;;-143.72;100.00;60182.97;5050686;28;45369;-80
2022/01/23 10:52:34;;;;;;;;;49.50;37.25;;;;;-143.72;100.00;60182.97;5051573;28;45649;-78
2022/01/23 10:55:23;;;;;;;;;51.25;38.50;;;;;-143.72;100.00;60182.97;5050072;28;45515;-78
2022/01/23 10:57:51;;;;;;;;;55.75;41.75;;;;;-143.72;100.00;60182.97;5048553;28;46721;-77
2022/01/23 11:00:34;;;;;;;;;52.50;36.75;;;;;-143.72;100.00;60182.97;5051799;28;45573;-78
2022/01/23 11:03:16;;;;;;;;;47.50;37.25;;;;;-143.72;100.00;60182.97;5061953;28;45387;-77
2022/01/23 11:05:41;;;;;;;;;44.00;36.00;;;;;-143.72;100.00;60182.97;5055254;28;44815;-81
2022/01/23 11:08:30;;;;;;;;;46.00;37.00;;;;;-143.72;100.00;60182.97;5052958;28;45459;-82
2022/01/23 11:10:59;;;;;;;;;57.25;38.00;;;;;-143.72;100.00;60182.97;5045649;28;45483;-79
2022/01/23 11:19:23;;;;;;;;;54.25;38.50;;;;;-143.72;100.00;60182.97;5048782;28;45436;-82
2022/01/23 11:21:51;;;;;;;;;58.25;42.25;;;;;-143.72;100.00;60182.97;5046482;28;45723;-88
2022/01/23 11:24:16;;;;;;;;;57.50;41.00;;;;;-143.72;100.00;60182.97;5048497;28;45487;-82
2022/01/23 11:26:42;;;;;;;;;59.00;43.00;;;;;-143.72;100.00;60182.97;5050706;28;45357;-86
2022/01/23 11:29:15;;;;;;;;;56.75;41.75;;;;;-143.72;100.00;60182.97;5051005;28;45436;-80
2022/01/23 11:31:43;;;;;;;;;58.00;37.75;;;;;-143.72;100.00;60182.97;5050740;28;45594;-80
2022/01/23 11:34:11;;;;;;;;;57.25;39.25;;;;;-143.72;100.00;60182.97;5050268;28;45550;-79
2022/01/23 11:36:36;;;;;;;;;56.50;41.50;;;;;-143.72;100.00;60182.97;5024284;28;45540;-79
2022/01/23 11:39:21;;;;;;;;;61.75;45.75;;;;;-143.72;100.00;60182.97;5048185;28;46951;-80
2022/01/23 11:50:49;;;;;;;;;59.25;46.00;;;;;-143.72;100.00;60182.97;5047379;28;45702;-79
2022/01/23 11:56:37;;;;;;;;;58.50;42.75;;;;;-143.72;100.00;60182.97;5047642;28;45490;-79
2022/01/23 11:59:24;;;;;;;;;60.00;41.75;;;;;-143.72;100.00;60182.97;5045227;28;45483;-79
2022/01/23 12:02:53;;;;;;;;;61.25;46.50;;;;;-143.72;100.00;60182.97;5045475;28;45498;-79
2022/01/23 12:05:19;;;;;;;;;63.75;46.50;;;;;-143.72;100.00;60182.97;5041915;28;45570;-80
2022/01/23 12:08:22;;;;;;;;;62.00;45.50;;;;;-143.72;100.00;60182.97;5048942;28;52447;-81
2022/01/23 12:16:53;;;;;;;;;58.25;42.75;;;;;-143.72;100.00;60182.97;5051982;28;45454;-81
2022/01/23 12:19:21;;;;;;;;;54.75;42.00;;;;;-143.72;100.00;60182.97;5052378;28;45474;-80
2022/01/23 12:21:48;;;;;;;;;58.50;45.00;;;;;-143.72;100.00;60182.97;5053725;28;45535;-80
2022/01/23 12:24:16;;;;;;;;;43.75;36.50;;;;;-143.72;100.00;60182.97;5049719;28;46781;-80
2022/01/23 12:26:42;;;;;;;;;58.00;42.75;;;;;-143.72;100.00;60182.97;5053915;28;45604;-81
2022/01/23 12:29:12;;;;;;;;;49.00;41.25;;;;;-143.72;100.00;60182.97;5054464;28;45447;-81
2022/01/23 12:31:38;;;;;;;;;63.25;44.75;;;;;-143.72;100.00;60182.97;5052107;28;45289;-81
2022/01/23 12:34:04;;;;;;;;;67.75;48.75;;;;;-143.72;100.00;60182.97;5052242;28;46224;-82
2022/01/23 12:36:31;;;;;;;;;58.25;43.50;;;;;-143.72;100.00;60182.97;5052178;28;45467;-80
2022/01/23 12:38:58;;;;;;;;;54.25;38.25;;;;;-143.72;100.00;60182.97;5048744;28;45380;-80
2022/01/23 12:41:29;;;;;;;;;60.25;46.00;;;;;-143.72;100.00;60182.97;5034774;28;45517;-81
2022/01/23 12:44:05;;;;;;;;;58.00;44.25;;;;;-143.72;100.00;60182.97;5036502;28;46565;-81
2022/01/23 12:46:34;;;;;;;;;57.50;44.25;;;;;-143.72;100.00;60182.97;5033244;28;45402;-81
2022/01/23 12:49:23;;;;;;;;;51.25;42.75;;;;;-143.72;100.00;60182.97;5032218;28;45409;-79
2022/01/23 12:52:09;;;;;;;;;74.75;54.25;;;;;-143.72;100.00;60182.97;5033985;28;45578;-80
2022/01/23 12:54:58;;;;;;;;;58.00;46.75;;;;;-143.72;100.00;60182.97;5019197;28;46780;-77
2022/01/23 12:57:39;;;;;;;;;66.25;45.75;;;;;-143.72;100.00;60182.97;5031920;28;45594;-79
2022/01/23 13:00:11;;;;;;;;;63.75;45.25;;;;;-143.72;100.00;60182.97;5028139;28;45567;-79
2022/01/23 13:02:47;;;;;;;;;53.75;40.00;;;;;-143.72;100.00;60182.97;5044642;28;45482;-79
2022/01/23 13:05:15;;;;;;;;;64.00;46.50;;;;;-143.72;100.00;60182.97;5035221;28;45695;-80
2022/01/23 13:08:09;;;;;;;;;61.50;45.50;;;;;-143.72;100.00;60182.97;5028858;28;46412;-80
2022/01/23 13:10:38;;;;;;;;;61.00;45.50;;;;;-143.72;100.00;60182.97;5029406;28;45541;-79
2022/01/23 13:16:14;;;;;;;;;63.75;45.00;;;;;-143.72;100.00;60182.97;5028416;28;45825;-77
2022/01/23 13:18:51;;;;;;;;;58.75;46.00;;;;;-143.72;100.00;60182.97;5032067;28;45556;-77
2022/01/23 13:27:25;;;;;;;;;62.00;42.25;;;;;-143.72;100.00;60182.97;5032389;28;45419;-76
2022/01/23 13:29:57;;;;;;;;;60.50;40.75;;;;;-143.72;100.00;60182.97;5034219;28;45452;-76
2022/01/23 13:32:48;;;;;;;;;66.00;49.75;;;;;-143.72;100.00;60182.97;5034925;28;45412;-75
2022/01/23 13:35:16;;;;;;;;;58.50;42.00;;;;;-143.72;100.00;60182.97;5043710;28;45466;-77
2022/01/23 13:37:48;;;;;;;;;58.50;44.75;;;;;-143.72;100.00;60182.97;5031991;28;46172;-76
2022/01/23 13:40:25;;;;;;;;;62.25;43.00;;;;;-143.72;100.00;60182.97;5034945;28;45447;-77
2022/01/23 13:49:17;;;;;;;;;58.75;43.00;;;;;-143.72;100.00;60182.97;5039397;28;45799;-76
2022/01/23 15:32:38;;;;;;;;;48.33;39.33;;;;;5.40;69.18;103351.13;5068720;27;45432;-75
2022/01/23 15:35:05;;;;;;;;;54.00;38.00;;;;;5.81;67.53;103377.69;5049091;28;45604;-75
2022/01/23 15:44:50;;;;;;;;;48.25;35.00;;;;;6.17;66.16;103376.03;5117540;27;45753;-73
2022/01/23 15:47:15;;;;;;;;;44.75;31.75;;;;;6.06;66.25;103331.97;5107031;27;45424;-72
2022/01/23 15:56:03;;;;;;;;;53.75;42.00;;;;;6.36;66.56;103352.00;5102666;27;45665;-77
2022/01/23 15:58:29;;;;;;;;;57.25;40.50;;;;;6.58;67.98;103362.19;5087767;27;45416;-76
2022/01/23 16:00:56;;;;;;;;;46.50;38.00;;;;;6.82;66.56;103372.44;5091979;27;45785;-77
2022/01/23 16:03:23;;;;;;;;;57.25;39.75;;;;;6.74;66.04;103333.63;5087684;27;45600;-77
2022/01/23 16:05:50;;;;;;;;;55.75;36.25;;;;;7.03;65.76;103365.88;5087108;27;46045;-77
2022/01/23 16:08:16;;;;;;;;;61.25;41.00;;;;;6.92;64.36;103333.16;5087160;27;45408;-78
2022/01/23 16:10:41;;;;;;;;;38.00;31.75;;;;;6.87;65.54;103329.50;5086873;27;45553;-77
2022/01/23 16:13:07;;;;;;;;;47.50;33.75;;;;;6.73;65.73;103292.34;5088219;27;45420;-78
2022/01/23 16:15:32;;;;;;;;;49.75;41.25;;;;;7.00;64.61;103321.00;5077521;27;46028;-77